Time;durP1;ratioP1;P1;durP2;ratioP2;P2;SDS_P1;SDS_P2;PMS_P1;PMS_P2;Temp;Humidity;BMP_temperature;BMP_pressure;BME280_temperature;BME280_humidity;BME280_pressure;Samples;Min_cycle;Max_cycle;Signal;HPM_P1;HPM_P2
2023/04/17 00:01:38;;;;;;;30.00;18.60;;;;;;;8.19;67.19;99207.29;105481;1251;97416;-70
2023/04/17 00:04:09;;;;;;;31.50;19.10;;;;;;;8.23;67.41;99211.14;105271;1256;96979;-71
2023/04/17 00:06:42;;;;;;;29.90;18.60;;;;;;;8.26;67.26;99206.87;105449;1252;109007;-72
2023/04/17 00:09:11;;;;;;;28.10;18.30;;;;;;;8.28;67.35;99200.38;105379;1266;102405;-71
2023/04/17 00:11:39;;;;;;;28.10;17.70;;;;;;;8.31;67.53;99199.29;105409;1269;107639;-72
2023/04/17 00:14:07;;;;;;;29.20;18.30;;;;;;;8.36;67.47;99198.84;105438;1253;96587;-72
2023/04/17 00:16:35;;;;;;;28.20;17.60;;;;;;;8.40;67.59;99195.60;105453;1255;97187;-72
2023/04/17 00:19:03;;;;;;;28.20;18.10;;;;;;;8.42;67.63;99191.20;105511;1256;108632;-73
2023/04/17 00:21:31;;;;;;;31.80;19.40;;;;;;;8.46;67.52;99194.34;105711;1256;102243;-71
2023/04/17 00:23:59;;;;;;;28.10;17.70;;;;;;;8.50;67.57;99192.89;105466;1253;107587;-73
2023/04/17 00:26:27;;;;;;;31.20;19.30;;;;;;;8.52;67.53;99196.27;105478;1251;96584;-75
2023/04/17 00:28:55;;;;;;;30.90;18.60;;;;;;;8.54;67.61;99191.92;105326;1256;97529;-71
2023/04/17 00:31:22;;;;;;;28.90;18.40;;;;;;;8.56;67.61;99192.52;105530;1251;109868;-70
2023/04/17 00:33:50;;;;;;;30.40;18.70;;;;;;;8.58;67.55;99188.88;105269;1251;102023;-74
2023/04/17 00:36:18;;;;;;;30.60;18.60;;;;;;;8.58;67.74;99189.38;105469;1256;107830;-72
2023/04/17 00:38:46;;;;;;;27.70;17.50;;;;;;;8.59;67.92;99189.83;105349;1255;96619;-75
2023/04/17 00:41:14;;;;;;;29.80;18.60;;;;;;;8.60;67.90;99195.46;105292;1254;97340;-70
2023/04/17 00:43:42;;;;;;;30.90;18.70;;;;;;;8.61;67.98;99198.23;105478;1256;109483;-71
2023/04/17 00:46:11;;;;;;;28.20;17.70;;;;;;;8.62;67.93;99198.34;105516;1251;101975;-73
2023/04/17 00:48:40;;;;;;;30.70;18.20;;;;;;;8.61;68.07;99193.95;105490;1255;108227;-72
2023/04/17 00:51:08;;;;;;;30.20;17.90;;;;;;;8.61;67.93;99197.67;105439;1253;96620;-72
2023/04/17 00:53:36;;;;;;;29.00;18.00;;;;;;;8.61;68.08;99198.77;105518;1256;97809;-72
2023/04/17 00:56:05;;;;;;;28.40;16.80;;;;;;;8.58;68.09;99195.91;105354;1252;110772;-71
2023/04/17 00:58:36;;;;;;;27.00;16.80;;;;;;;8.56;68.16;99197.46;105419;1255;101964;-74
2023/04/17 01:01:05;;;;;;;28.00;17.20;;;;;;;8.55;68.14;99199.64;105756;1274;107646;-73
2023/04/17 01:03:32;;;;;;;27.60;17.10;;;;;;;8.55;68.25;99190.26;105388;1256;96902;-71
2023/04/17 01:06:02;;;;;;;31.40;17.60;;;;;;;8.57;68.33;99193.48;105618;1256;97131;-74
2023/04/17 01:08:39;;;;;;;27.70;16.80;;;;;;;8.59;68.33;99193.02;105399;1274;109852;-71
2023/04/17 01:11:09;;;;;;;27.50;16.80;;;;;;;8.61;68.32;99192.39;105302;1254;101979;-72
2023/04/17 01:13:47;;;;;;;27.80;16.90;;;;;;;8.62;68.36;99188.43;105364;1253;107429;-72
2023/04/17 01:16:16;;;;;;;26.60;16.00;;;;;;;8.64;68.55;99184.95;105388;1256;97940;-78
2023/04/17 01:18:47;;;;;;;29.90;18.60;;;;;;;8.66;68.46;99185.00;105514;1256;97941;-72
2023/04/17 01:21:15;;;;;;;25.80;15.50;;;;;;;8.69;68.58;99189.95;105385;1255;109901;-76
2023/04/17 01:23:50;;;;;;;26.40;15.80;;;;;;;8.72;68.60;99186.62;105200;1252;101186;-72
2023/04/17 01:26:22;;;;;;;26.60;15.20;;;;;;;8.74;68.67;99182.23;105468;1257;106179;-71
2023/04/17 01:28:51;;;;;;;25.10;14.90;;;;;;;8.75;68.59;99183.36;105462;1251;96676;-71
2023/04/17 01:31:20;;;;;;;25.50;15.70;;;;;;;8.77;68.75;99184.80;105575;1255;98197;-73
2023/04/17 01:33:50;;;;;;;26.60;15.30;;;;;;;8.79;68.72;99179.95;105463;1255;109936;-72
2023/04/17 01:36:18;;;;;;;24.40;14.70;;;;;;;8.80;68.75;99181.98;105448;1255;102259;-73
2023/04/17 01:38:45;;;;;;;26.20;14.90;;;;;;;8.81;68.83;99184.06;105546;1267;107618;-71
2023/04/17 01:41:13;;;;;;;25.40;14.20;;;;;;;8.83;68.91;99184.14;105518;1257;96622;-72
2023/04/17 01:43:44;;;;;;;26.40;14.90;;;;;;;8.85;68.99;99186.52;105642;1254;97135;-72
2023/04/17 01:46:12;;;;;;;25.90;14.60;;;;;;;8.86;68.87;99187.85;105496;1252;109931;-71
2023/04/17 01:48:41;;;;;;;24.50;13.90;;;;;;;8.86;68.95;99192.37;105442;1255;100448;-72
2023/04/17 01:51:09;;;;;;;24.30;13.50;;;;;;;8.88;68.94;99191.93;105206;1255;107642;-73
2023/04/17 01:53:38;;;;;;;22.50;13.60;;;;;;;8.89;69.00;99194.68;105430;1251;96664;-72
2023/04/17 01:56:06;;;;;;;24.10;14.20;;;;;;;8.90;69.00;99196.24;105413;1256;97061;-73
2023/04/17 01:58:34;;;;;;;26.80;14.40;;;;;;;8.89;69.11;99195.06;105284;1256;109927;-74
2023/04/17 02:01:02;;;;;;;22.90;14.10;;;;;;;8.89;69.12;99192.41;105663;1251;102171;-72
2023/04/17 02:03:30;;;;;;;25.20;13.30;;;;;;;8.88;69.13;99192.62;105364;1251;107630;-73
2023/04/17 02:05:59;;;;;;;22.60;13.20;;;;;;;8.89;69.08;99189.77;105651;1254;96589;-71
2023/04/17 02:08:28;;;;;;;24.90;14.20;;;;;;;8.89;69.05;99194.52;105497;1254;97014;-72
2023/04/17 02:10:56;;;;;;;24.60;14.20;;;;;;;8.91;69.15;99193.31;105590;1254;109998;-72
2023/04/17 02:13:24;;;;;;;25.30;14.10;;;;;;;8.92;69.15;99193.64;105510;1253;101841;-71
2023/04/17 02:15:53;;;;;;;25.70;15.20;;;;;;;8.93;69.34;99189.14;105524;1255;107707;-73
2023/04/17 02:18:21;;;;;;;24.30;12.70;;;;;;;8.94;69.37;99193.32;105444;1254;96607;-70
2023/04/17 02:20:49;;;;;;;23.30;14.30;;;;;;;8.95;69.37;99190.25;105142;1256;97483;-74
2023/04/17 02:23:17;;;;;;;23.30;13.50;;;;;;;8.96;69.51;99188.44;105381;1255;109946;-73
2023/04/17 02:25:45;;;;;;;24.00;12.40;;;;;;;8.97;69.53;99182.85;105468;1254;102277;-73
2023/04/17 02:28:12;;;;;;;24.50;13.90;;;;;;;8.98;69.53;99185.68;105424;1269;107432;-72
2023/04/17 02:30:40;;;;;;;24.60;13.70;;;;;;;8.98;69.47;99187.98;105232;1254;97348;-72
2023/04/17 02:33:09;;;;;;;25.50;12.50;;;;;;;8.94;69.38;99187.33;105349;1256;96575;-76
2023/04/17 02:35:37;;;;;;;23.30;12.20;;;;;;;8.87;69.41;99186.16;105455;1256;109684;-74
2023/04/17 02:38:04;;;;;;;23.60;12.50;;;;;;;8.80;69.47;99186.95;105426;1252;102246;-71
2023/04/17 02:40:33;;;;;;;21.40;12.10;;;;;;;8.74;69.45;99185.23;105506;1255;107625;-71
2023/04/17 02:43:01;;;;;;;21.70;12.00;;;;;;;8.67;69.42;99183.20;105418;1256;98039;-72
2023/04/17 02:45:30;;;;;;;21.60;12.50;;;;;;;8.59;69.42;99183.85;105251;1257;97068;-74
2023/04/17 02:47:57;;;;;;;25.00;14.20;;;;;;;8.53;69.48;99191.48;105554;1251;111036;-74
2023/04/17 02:50:25;;;;;;;25.50;15.20;;;;;;;8.51;69.62;99190.73;105538;1255;104181;-74
2023/04/17 02:52:53;;;;;;;25.90;13.90;;;;;;;8.50;69.70;99187.94;105487;1267;108020;-72
2023/04/17 02:55:21;;;;;;;25.70;13.50;;;;;;;8.52;69.83;99191.17;105435;1253;97947;-72
2023/04/17 02:57:49;;;;;;;26.80;15.40;;;;;;;8.56;69.70;99191.50;105234;1255;98039;-75
2023/04/17 03:00:17;;;;;;;25.20;14.80;;;;;;;8.57;69.78;99192.25;105278;1256;109493;-71
2023/04/17 03:02:45;;;;;;;23.20;12.60;;;;;;;8.59;69.88;99197.65;105254;1256;100884;-72
2023/04/17 03:05:15;;;;;;;26.60;14.70;;;;;;;8.60;69.97;99194.55;105505;1274;107662;-72
2023/04/17 03:07:43;;;;;;;23.30;13.50;;;;;;;8.62;69.98;99194.98;105423;1254;97801;-73
2023/04/17 03:10:11;;;;;;;24.60;13.30;;;;;;;8.64;70.09;99186.89;105230;1251;97008;-72
2023/04/17 03:12:39;;;;;;;23.70;13.80;;;;;;;8.65;70.20;99190.36;105256;1254;110699;-74
2023/04/17 03:15:07;;;;;;;22.80;13.30;;;;;;;8.66;70.14;99192.77;105085;1255;220139;-74
2023/04/17 03:17:35;;;;;;;23.30;12.80;;;;;;;8.68;70.21;99192.30;105505;1252;107329;-72
2023/04/17 03:20:06;;;;;;;22.70;13.00;;;;;;;8.68;70.10;99191.05;105521;1254;96587;-74
2023/04/17 03:22:35;;;;;;;23.60;12.90;;;;;;;8.70;70.36;99197.13;105400;1254;97061;-71
2023/04/17 03:25:03;;;;;;;22.60;12.40;;;;;;;8.72;70.36;99199.32;105421;1251;109972;-72
2023/04/17 03:27:31;;;;;;;24.00;13.30;;;;;;;8.74;70.30;99196.20;105541;1256;101309;-72
2023/04/17 03:29:59;;;;;;;22.00;11.90;;;;;;;8.76;70.44;99201.36;105201;1257;107106;-72
2023/04/17 03:32:27;;;;;;;22.40;11.80;;;;;;;8.76;70.51;99204.70;105580;1256;96616;-71
2023/04/17 03:34:55;;;;;;;23.50;12.10;;;;;;;8.77;70.35;99205.73;105274;1256;97090;-71
2023/04/17 03:37:22;;;;;;;21.60;12.50;;;;;;;8.76;70.39;99204.52;105468;1255;108923;-70
2023/04/17 03:39:50;;;;;;;22.90;11.90;;;;;;;8.77;70.46;99202.52;105269;1256;102237;-76
2023/04/17 03:42:18;;;;;;;24.60;12.50;;;;;;;8.78;70.63;99204.24;105454;1251;107556;-74
2023/04/17 03:44:45;;;;;;;21.50;12.30;;;;;;;8.78;70.45;99205.61;105433;1256;97825;-72
2023/04/17 03:47:13;;;;;;;23.10;12.80;;;;;;;8.78;70.48;99211.44;105529;1255;97100;-73
2023/04/17 03:49:41;;;;;;;22.40;12.20;;;;;;;8.78;70.43;99212.16;106617;1254;109500;-72
2023/04/17 03:52:09;;;;;;;21.90;12.20;;;;;;;8.78;70.46;99214.11;107466;1252;101483;-73
2023/04/17 03:54:37;;;;;;;23.10;11.80;;;;;;;8.79;70.51;99214.78;105389;1255;108089;-72
2023/04/17 03:57:05;;;;;;;23.00;12.20;;;;;;;8.79;70.55;99214.23;105247;1252;96716;-73
2023/04/17 03:59:33;;;;;;;22.50;11.60;;;;;;;8.79;70.45;99211.02;105380;1255;97903;-71
2023/04/17 04:02:01;;;;;;;23.20;12.20;;;;;;;8.80;70.71;99213.30;105441;1255;108845;-72
2023/04/17 04:04:29;;;;;;;22.20;11.40;;;;;;;8.81;70.63;99220.32;107074;1254;102739;-73
2023/04/17 04:07:00;;;;;;;22.30;12.30;;;;;;;8.81;70.67;99217.84;108713;1252;107339;-72
2023/04/17 04:09:28;;;;;;;24.70;13.50;;;;;;;8.83;70.83;99219.34;108693;1251;94237;-74
2023/04/17 04:11:56;;;;;;;26.80;13.50;;;;;;;8.87;70.72;99224.55;108183;1253;95345;-72
2023/04/17 04:14:24;;;;;;;22.80;11.90;;;;;;;8.91;70.84;99223.42;106716;1252;110364;-71
2023/04/17 04:16:52;;;;;;;24.20;12.50;;;;;;;8.95;70.79;99221.91;105600;1252;101843;-73
2023/04/17 04:19:19;;;;;;;24.80;12.60;;;;;;;8.99;70.79;99221.51;105516;1256;107199;-71
2023/04/17 04:21:48;;;;;;;22.60;11.90;;;;;;;9.02;70.89;99224.83;105545;1255;96641;-72
2023/04/17 04:24:16;;;;;;;23.30;12.60;;;;;;;9.06;70.82;99225.12;105484;1254;97723;-72
2023/04/17 04:26:46;;;;;;;24.90;13.40;;;;;;;9.08;70.89;99222.98;105495;1253;108533;-72
2023/04/17 04:29:14;;;;;;;23.90;13.70;;;;;;;9.11;70.88;99223.77;105472;1255;101850;-72
2023/04/17 04:31:45;;;;;;;26.90;13.80;;;;;;;9.13;71.08;99229.13;105388;1255;107442;-71
2023/04/17 04:34:15;;;;;;;27.30;13.40;;;;;;;9.15;71.12;99224.35;105469;1251;97489;-75
2023/04/17 04:36:49;;;;;;;26.40;14.00;;;;;;;9.18;71.11;99231.27;105547;1255;96693;-72
2023/04/17 04:39:21;;;;;;;25.20;13.60;;;;;;;9.20;71.14;99230.05;105616;1255;109938;-77
2023/04/17 04:41:49;;;;;;;26.30;14.50;;;;;;;9.23;71.17;99230.36;105294;1257;101122;-74
2023/04/17 04:44:18;;;;;;;25.60;13.50;;;;;;;9.26;71.07;99231.63;105429;1268;107620;-76
2023/04/17 04:46:46;;;;;;;27.60;14.00;;;;;;;9.26;71.09;99233.04;105349;1251;97408;-75
2023/04/17 04:49:14;;;;;;;25.30;14.20;;;;;;;9.27;71.20;99232.27;105509;1256;97928;-73
2023/04/17 04:51:42;;;;;;;28.00;13.80;;;;;;;9.29;71.31;99233.74;105505;1257;109703;-73
2023/04/17 04:54:10;;;;;;;27.30;15.20;;;;;;;9.29;71.44;99230.70;105489;1251;102198;-71
2023/04/17 04:56:39;;;;;;;25.50;14.50;;;;;;;9.32;71.43;99231.26;105396;1256;107587;-73
2023/04/17 04:59:06;;;;;;;25.60;14.00;;;;;;;9.35;71.53;99231.23;105411;1256;96585;-74
2023/04/17 05:01:34;;;;;;;26.40;13.90;;;;;;;9.38;71.50;99231.52;105657;1254;96950;-78
2023/04/17 05:04:02;;;;;;;26.90;15.90;;;;;;;9.43;71.48;99230.38;105243;1256;109925;-73
2023/04/17 05:06:31;;;;;;;25.30;15.10;;;;;;;9.48;71.52;99231.98;105221;1256;102463;-75
2023/04/17 05:08:59;;;;;;;28.20;14.40;;;;;;;9.52;71.54;99229.95;105395;1255;108168;-74
2023/04/17 05:11:28;;;;;;;27.50;15.30;;;;;;;9.58;71.59;99229.58;105310;1251;97249;-73
2023/04/17 05:13:56;;;;;;;26.20;13.90;;;;;;;9.61;71.63;99230.42;105243;1253;97940;-73
2023/04/17 05:16:23;;;;;;;26.80;15.00;;;;;;;9.64;71.68;99229.87;105426;1255;109758;-74
2023/04/17 05:18:51;;;;;;;28.90;15.60;;;;;;;9.66;71.78;99228.13;105306;1255;102199;-75
2023/04/17 05:21:19;;;;;;;27.50;15.50;;;;;;;9.70;71.66;99229.32;105351;1256;107424;-74
2023/04/17 05:23:48;;;;;;;26.20;14.70;;;;;;;9.70;71.93;99229.30;105403;1256;97861;-73
2023/04/17 05:26:16;;;;;;;29.80;15.60;;;;;;;9.73;71.93;99227.48;105360;1253;97102;-74
2023/04/17 05:28:44;;;;;;;28.40;15.50;;;;;;;9.74;71.92;99230.44;105449;1269;109914;-74
2023/04/17 05:31:13;;;;;;;29.30;16.50;;;;;;;9.75;71.87;99233.61;105236;1257;102250;-74
2023/04/17 05:33:41;;;;;;;29.00;16.60;;;;;;;9.74;71.89;99237.90;105478;1256;107292;-73
2023/04/17 05:36:09;;;;;;;30.20;17.00;;;;;;;9.73;71.91;99234.77;106884;1256;97144;-73
2023/04/17 05:38:37;;;;;;;28.80;15.80;;;;;;;9.73;72.01;99234.60;105222;1256;96596;-73
2023/04/17 05:41:07;;;;;;;29.30;16.20;;;;;;;9.72;72.02;99238.23;105298;1256;109932;-77
2023/04/17 05:43:35;;;;;;;28.30;16.20;;;;;;;9.70;72.14;99238.54;108737;1251;101968;-74
2023/04/17 05:46:02;;;;;;;31.70;17.50;;;;;;;9.68;72.27;99238.95;107398;1253;107703;-77
2023/04/17 05:48:31;;;;;;;33.00;17.70;;;;;;;9.68;72.23;99240.39;105189;1256;97884;-72
2023/04/17 05:50:59;;;;;;;30.10;17.40;;;;;;;9.68;72.18;99242.55;105115;1256;97090;-74
2023/04/17 05:53:29;;;;;;;31.70;18.20;;;;;;;9.66;72.29;99240.86;105524;1253;109708;-74
2023/04/17 05:55:57;;;;;;;33.50;19.10;;;;;;;9.67;72.38;99244.91;105322;1258;103530;-73
2023/04/17 05:58:25;;;;;;;31.80;18.30;;;;;;;9.67;72.39;99244.34;105355;1266;107177;-73
2023/04/17 06:00:54;;;;;;;32.60;18.00;;;;;;;9.65;72.54;99247.65;105537;1254;97953;-72
2023/04/17 06:03:22;;;;;;;31.80;18.90;;;;;;;9.64;72.55;99250.41;105187;1264;96982;-74
2023/04/17 06:05:51;;;;;;;30.30;16.50;;;;;;;9.63;72.71;99247.27;105120;1256;109907;-73
2023/04/17 06:08:19;;;;;;;34.30;19.10;;;;;;;9.63;72.65;99248.52;105641;1251;103653;-73
2023/04/17 06:10:48;;;;;;;32.00;18.60;;;;;;;9.64;72.79;99250.08;105390;1253;107559;-72
2023/04/17 06:13:17;;;;;;;33.80;19.50;;;;;;;9.62;72.83;99251.95;105344;1256;97745;-73
2023/04/17 06:15:45;;;;;;;32.50;18.70;;;;;;;9.65;72.91;99256.21;105421;1256;98017;-73
2023/04/17 06:18:14;;;;;;;32.40;18.70;;;;;;;9.65;72.93;99258.45;105186;1255;109921;-73
2023/04/17 06:20:44;;;;;;;39.00;21.30;;;;;;;9.68;72.81;99262.72;105047;1256;100994;-73
2023/04/17 06:23:13;;;;;;;36.70;20.60;;;;;;;9.70;72.97;99261.70;105176;1254;107369;-77
2023/04/17 06:25:41;;;;;;;35.90;21.10;;;;;;;9.72;72.95;99266.70;105150;1254;97418;-73
2023/04/17 06:28:09;;;;;;;36.60;21.00;;;;;;;9.73;72.89;99266.48;105122;1256;97103;-72
2023/04/17 06:30:37;;;;;;;38.30;22.10;;;;;;;9.72;73.11;99266.00;105376;1256;109983;-73
2023/04/17 06:33:05;;;;;;;35.80;21.40;;;;;;;9.67;73.22;99273.39;105223;1255;102250;-74
2023/04/17 06:35:33;;;;;;;39.00;22.70;;;;;;;9.62;73.29;99273.55;105146;1251;107120;-73
2023/04/17 06:38:02;;;;;;;40.70;23.00;;;;;;;9.57;73.42;99272.98;105294;1254;96688;-73
2023/04/17 06:40:30;;;;;;;39.10;22.20;;;;;;;9.53;73.61;99276.23;105142;1256;97004;-73
2023/04/17 06:42:58;;;;;;;38.10;21.60;;;;;;;9.51;73.47;99276.73;105293;1255;109918;-73
2023/04/17 06:45:26;;;;;;;40.40;23.50;;;;;;;9.49;73.57;99283.05;105165;1256;102242;-73
2023/04/17 06:47:54;;;;;;;39.50;22.70;;;;;;;9.44;73.62;99282.18;105294;1263;107246;-73
2023/04/17 06:50:22;;;;;;;40.30;22.60;;;;;;;9.41;73.67;99286.73;105219;1266;97937;-74
2023/04/17 06:52:50;;;;;;;36.90;21.80;;;;;;;9.37;73.87;99287.36;105133;1266;97189;-73
2023/04/17 06:55:18;;;;;;;36.00;20.10;;;;;;;9.32;73.92;99289.29;105262;1255;109629;-73
2023/04/17 06:57:46;;;;;;;35.20;20.10;;;;;;;9.28;73.82;99290.23;105316;1256;102125;-73
2023/04/17 07:00:15;;;;;;;34.90;20.00;;;;;;;9.27;73.90;99297.90;105334;1256;107627;-73
2023/04/17 07:02:43;;;;;;;34.00;20.40;;;;;;;9.27;73.86;99302.86;105137;1256;96693;-73
2023/04/17 07:05:11;;;;;;;33.40;19.20;;;;;;;9.26;73.89;99305.61;105349;1254;97835;-73
2023/04/17 07:07:40;;;;;;;33.00;18.30;;;;;;;9.25;74.10;99309.53;105408;1256;110914;-74
2023/04/17 07:10:09;;;;;;;34.80;19.40;;;;;;;9.24;74.23;99310.28;105180;1255;102242;-74
2023/04/17 07:12:37;;;;;;;31.80;18.20;;;;;;;9.24;74.10;99312.98;105295;1254;109029;-76
2023/04/17 07:15:05;;;;;;;36.20;20.30;;;;;;;9.28;74.15;99312.92;105349;1254;96699;-73
2023/04/17 07:17:52;;;;;;;35.00;20.00;;;;;;;9.32;74.13;99315.10;105345;1253;97078;-73
2023/04/17 07:20:21;;;;;;;35.60;18.90;;;;;;;9.35;74.22;99317.59;105227;1255;110573;-73
2023/04/17 07:22:49;;;;;;;31.80;17.20;;;;;;;9.38;74.23;99321.63;105444;1256;102232;-74
2023/04/17 07:25:18;;;;;;;29.00;15.40;;;;;;;9.41;74.29;99317.39;105171;1253;107146;-73
2023/04/17 07:27:46;;;;;;;31.20;15.70;;;;;;;9.41;74.36;99316.68;105334;1253;96629;-74
2023/04/17 07:30:14;;;;;;;27.50;14.30;;;;;;;9.41;74.28;99315.09;105273;1256;96927;-73
2023/04/17 07:32:42;;;;;;;30.00;16.50;;;;;;;9.41;74.37;99314.73;105405;1254;110982;-73
2023/04/17 07:35:11;;;;;;;27.60;14.40;;;;;;;9.42;74.61;99323.14;105187;1253;101958;-73
2023/04/17 07:37:38;;;;;;;26.10;14.00;;;;;;;9.43;74.49;99318.48;105393;1257;108342;-73
2023/04/17 07:40:08;;;;;;;28.20;15.20;;;;;;;9.44;74.57;99319.36;105358;1253;97551;-74
2023/04/17 07:42:36;;;;;;;27.50;15.00;;;;;;;9.46;74.64;99319.58;105301;1255;97815;-74
2023/04/17 07:45:05;;;;;;;26.10;12.90;;;;;;;9.48;74.66;99318.91;105142;1256;109908;-73
2023/04/17 07:47:33;;;;;;;25.20;12.90;;;;;;;9.48;74.69;99320.67;105307;1256;102674;-73
2023/04/17 07:50:02;;;;;;;26.30;12.90;;;;;;;9.48;74.82;99322.63;105278;1256;107580;-78
2023/04/17 07:52:30;;;;;;;25.80;13.50;;;;;;;9.48;74.87;99319.42;105315;1251;96703;-73
2023/04/17 07:54:58;;;;;;;21.80;10.40;;;;;;;9.49;74.98;99322.55;105641;1255;97074;-75
2023/04/17 07:57:26;;;;;;;21.70;10.10;;;;;;;9.49;75.12;99325.89;105447;1255;109472;-72
2023/04/17 07:59:54;;;;;;;22.40;11.20;;;;;;;9.48;75.09;99327.20;105382;1255;100992;-74
2023/04/17 08:02:22;;;;;;;19.80;9.40;;;;;;;9.47;75.07;99328.36;105632;1267;107184;-73
2023/04/17 08:04:51;;;;;;;22.40;11.00;;;;;;;9.47;75.13;99327.46;105322;1255;97108;-73
2023/04/17 08:07:19;;;;;;;21.10;10.50;;;;;;;9.49;74.93;99330.90;105483;1255;97147;-74
2023/04/17 08:09:47;;;;;;;21.10;10.20;;;;;;;9.50;75.00;99332.58;105362;1255;109859;-74
2023/04/17 08:12:15;;;;;;;21.90;10.00;;;;;;;9.50;75.19;99333.61;105167;1256;103082;-77
2023/04/17 08:14:46;;;;;;;20.30;9.00;;;;;;;9.52;75.13;99337.23;105388;1256;108961;-72
2023/04/17 08:17:18;;;;;;;23.70;10.10;;;;;;;9.50;75.13;99335.22;105209;1255;96675;-74
2023/04/17 08:19:49;;;;;;;19.70;10.10;;;;;;;9.51;75.22;99335.36;105349;1255;96593;-74
2023/04/17 08:22:20;;;;;;;20.70;10.00;;;;;;;9.53;75.24;99335.04;105358;1255;111718;-74
2023/04/17 08:24:48;;;;;;;18.50;8.50;;;;;;;9.57;75.08;99332.50;105413;1256;101976;-73
2023/04/17 08:27:16;;;;;;;18.00;8.20;;;;;;;9.58;75.29;99331.74;105141;1254;107245;-74
2023/04/17 08:29:44;;;;;;;20.00;9.50;;;;;;;9.58;75.23;99336.53;105359;1274;99259;-77
2023/04/17 08:32:11;;;;;;;21.30;9.50;;;;;;;9.56;75.28;99331.66;105326;1253;99097;-74
2023/04/17 08:34:44;;;;;;;19.60;8.70;;;;;;;9.57;75.36;99329.65;105400;1256;111241;-73
2023/04/17 08:37:13;;;;;;;17.40;7.60;;;;;;;9.60;75.53;99331.40;105386;1256;102166;-75
2023/04/17 08:39:43;;;;;;;17.10;7.80;;;;;;;9.62;75.59;99333.02;105306;1257;107754;-75
2023/04/17 08:42:15;;;;;;;18.10;8.60;;;;;;;9.66;75.67;99335.23;105275;1256;98052;-80
2023/04/17 08:44:46;;;;;;;14.70;6.60;;;;;;;9.69;75.49;99338.44;105409;1253;98965;-73
2023/04/17 08:47:16;;;;;;;19.20;8.00;;;;;;;9.70;75.62;99341.96;105290;1254;111090;-75
2023/04/17 08:49:46;;;;;;;18.00;7.60;;;;;;;9.70;75.64;99337.84;105380;1261;101989;-73
2023/04/17 08:52:14;;;;;;;16.60;7.50;;;;;;;9.70;75.49;99342.81;105252;1256;107663;-73
2023/04/17 08:54:41;;;;;;;18.00;7.90;;;;;;;9.70;75.58;99337.16;105337;1256;97947;-73
2023/04/17 08:57:10;;;;;;;16.40;7.20;;;;;;;9.71;75.52;99337.40;105381;1254;99237;-74
2023/04/17 08:59:37;;;;;;;16.50;7.60;;;;;;;9.74;75.52;99336.36;105184;1257;112657;-74
2023/04/17 09:02:07;;;;;;;18.40;8.10;;;;;;;9.77;75.57;99334.93;105401;1268;101932;-73
2023/04/17 09:04:43;;;;;;;17.30;7.50;;;;;;;9.79;75.58;99334.28;105345;1253;108772;-73
2023/04/17 09:07:13;;;;;;;14.80;6.40;;;;;;;9.78;75.66;99332.88;105293;1256;97956;-73
2023/04/17 09:09:55;;;;;;;15.70;6.70;;;;;;;9.79;75.74;99333.39;105202;1266;98450;-73
2023/04/17 09:12:25;;;;;;;14.70;6.20;;;;;;;9.83;75.67;99334.17;105272;1263;110810;-73
2023/04/17 09:14:53;;;;;;;12.80;5.90;;;;;;;9.89;75.82;99335.91;105297;1266;102506;-73
2023/04/17 09:17:21;;;;;;;14.80;6.30;;;;;;;9.96;75.83;99337.77;105372;1255;107631;-73
2023/04/17 09:20:11;;;;;;;12.90;5.70;;;;;;;10.02;75.80;99335.46;105200;1252;98879;-74
2023/04/17 09:22:39;;;;;;;13.10;5.40;;;;;;;9.99;76.05;99334.52;105318;1256;98387;-77
2023/04/17 09:25:18;;;;;;;14.00;6.20;;;;;;;10.01;76.04;99336.73;105350;1256;110768;-75
2023/04/17 09:27:46;;;;;;;12.70;5.70;;;;;;;10.04;75.96;99340.43;105202;1251;101856;-73
2023/04/17 09:30:15;;;;;;;12.20;5.60;;;;;;;10.03;75.99;99336.41;105305;1258;107701;-77
2023/04/17 09:32:42;;;;;;;10.80;5.00;;;;;;;10.03;76.05;99339.10;105204;1256;98683;-74
2023/04/17 09:35:24;;;;;;;13.00;5.90;;;;;;;10.02;75.99;99340.36;105376;1254;98449;-74
2023/04/17 09:37:53;;;;;;;13.10;6.10;;;;;;;10.00;75.92;99340.38;105234;1253;111372;-73
2023/04/17 09:40:24;;;;;;;12.70;5.80;;;;;;;9.94;75.88;99338.77;105261;1256;101909;-73
2023/04/17 09:42:58;;;;;;;13.90;5.40;;;;;;;9.92;76.05;99338.36;105221;1256;107645;-75
2023/04/17 09:45:38;;;;;;;13.60;5.90;;;;;;;9.91;76.12;99338.77;105141;1252;99301;-73
2023/04/17 09:48:09;;;;;;;15.20;6.50;;;;;;;9.93;76.13;99339.02;105142;1254;99245;-73
2023/04/17 09:50:38;;;;;;;12.60;5.30;;;;;;;9.94;76.11;99337.87;105210;1256;110030;-73
2023/04/17 09:53:07;;;;;;;14.40;5.90;;;;;;;9.93;75.99;99342.05;105338;1256;101542;-73
2023/04/17 09:55:36;;;;;;;15.70;6.40;;;;;;;9.91;76.01;99342.86;105334;1256;107219;-75
2023/04/17 09:58:06;;;;;;;15.90;6.70;;;;;;;9.92;76.19;99342.84;105290;1255;98814;-73
2023/04/17 10:00:36;;;;;;;17.40;6.10;;;;;;;9.92;76.14;99341.55;105275;1254;98476;-72
2023/04/17 10:03:06;;;;;;;16.80;6.90;;;;;;;9.94;76.29;99342.14;105379;1256;112450;-72
2023/04/17 10:05:35;;;;;;;14.30;6.40;;;;;;;9.96;76.18;99338.30;105257;1256;101784;-73
2023/04/17 10:08:03;;;;;;;17.20;6.60;;;;;;;9.98;76.30;99338.89;105367;1256;107649;-73
2023/04/17 10:10:33;;;;;;;14.90;5.70;;;;;;;9.97;76.23;99339.27;105180;1258;99255;-74
2023/04/17 10:13:04;;;;;;;15.70;5.90;;;;;;;9.97;76.26;99336.80;105356;1255;98485;-73
2023/04/17 10:15:33;;;;;;;17.00;6.70;;;;;;;9.97;76.26;99339.27;105259;1255;111137;-73
2023/04/17 10:18:21;;;;;;;14.70;5.70;;;;;;;9.98;76.48;99337.63;105281;1256;102308;-74
2023/04/17 10:20:52;;;;;;;15.10;6.30;;;;;;;10.02;76.46;99336.33;105249;1266;108116;-74
2023/04/17 10:23:33;;;;;;;13.50;6.30;;;;;;;10.06;76.38;99332.85;105300;1256;97964;-73
2023/04/17 10:26:23;;;;;;;14.50;6.30;;;;;;;10.13;76.51;99329.91;105414;1253;98544;-73
2023/04/17 10:28:56;;;;;;;12.90;5.80;;;;;;;10.19;76.55;99330.97;105180;1256;110879;-72
2023/04/17 10:32:09;;;;;;;10.10;4.90;;;;;;;10.22;76.50;99332.12;105238;1256;102268;-74
2023/04/17 10:34:38;;;;;;;11.40;5.50;;;;;;;10.24;76.53;99330.95;105296;1256;107640;-71
2023/04/17 10:37:14;;;;;;;11.30;5.20;;;;;;;10.26;76.59;99334.73;105243;1265;97955;-71
2023/04/17 10:39:50;;;;;;;11.80;5.30;;;;;;;10.26;76.68;99332.06;105413;1256;98751;-73
2023/04/17 10:42:19;;;;;;;14.50;5.50;;;;;;;10.25;76.72;99331.27;105353;1256;111226;-73
2023/04/17 10:44:49;;;;;;;13.30;5.90;;;;;;;10.26;76.65;99332.55;105231;1266;102097;-72
2023/04/17 10:47:21;;;;;;;11.60;5.30;;;;;;;10.30;76.78;99333.77;105347;1256;105774;-73
2023/04/17 10:49:54;;;;;;;13.20;5.40;;;;;;;10.33;76.68;99330.02;105210;1256;98758;-73
2023/04/17 10:52:31;;;;;;;12.30;5.90;;;;;;;10.35;76.78;99334.16;105439;1254;98435;-74
2023/04/17 10:55:06;;;;;;;11.50;5.40;;;;;;;10.37;76.95;99325.69;105486;1256;112170;-74
2023/04/17 10:58:10;;;;;;;14.30;6.00;;;;;;;10.42;76.76;99326.95;105185;1256;102074;-73
2023/04/17 11:00:50;;;;;;;13.30;5.90;;;;;;;10.48;76.87;99330.61;105331;1265;107646;-73
2023/04/17 11:03:21;;;;;;;14.60;6.00;;;;;;;10.50;77.06;99330.70;105143;1258;98025;-73
2023/04/17 11:05:51;;;;;;;12.90;5.70;;;;;;;10.52;76.91;99334.81;105352;1256;98459;-73
2023/04/17 11:08:19;;;;;;;14.30;6.30;;;;;;;10.52;76.97;99334.59;105365;1256;111353;-73
2023/04/17 11:10:52;;;;;;;13.00;6.40;;;;;;;10.51;76.99;99337.31;105371;1265;101499;-72
2023/04/17 11:13:20;;;;;;;15.80;6.80;;;;;;;10.46;76.97;99336.43;105304;1272;107630;-73
2023/04/17 11:15:50;;;;;;;14.50;6.20;;;;;;;10.46;76.98;99337.34;105149;1256;99081;-73
2023/04/17 11:18:20;;;;;;;13.90;6.60;;;;;;;10.47;77.05;99339.60;105382;1254;98032;-73
2023/04/17 11:20:48;;;;;;;13.50;5.60;;;;;;;10.45;76.96;99339.70;105230;1256;111255;-74
2023/04/17 11:23:17;;;;;;;13.40;5.80;;;;;;;10.42;77.12;99340.56;105376;1256;101504;-72
2023/04/17 11:25:46;;;;;;;15.80;6.30;;;;;;;10.36;77.11;99343.80;105270;1253;107627;-73